createdAt,value
2019-03-29T00:04:24.891Z,100033.23
2019-03-29T00:09:31.487Z,100030.42
2019-03-29T00:14:37.580Z,100041.62
2019-03-29T00:19:43.274Z,100043.28
2019-03-29T00:24:48.873Z,100041.64
2019-03-29T00:29:55.284Z,100035.02
2019-03-29T00:35:01.701Z,100036.98
2019-03-29T00:40:07.832Z,100035.30
2019-03-29T00:45:14.952Z,100034.64
2019-03-29T00:50:20.771Z,100021.42
2019-03-29T00:55:26.501Z,100029.80
2019-03-29T01:00:33.660Z,100024.36
2019-03-29T01:05:39.492Z,100025.00
2019-03-29T01:10:45.543Z,100026.48
2019-03-29T01:15:51.654Z,100024.98
2019-03-29T01:20:57.356Z,100020.70
2019-03-29T01:26:03.107Z,100020.34
2019-03-29T01:31:09.230Z,100018.19
2019-03-29T01:36:14.897Z,100001.38
2019-03-29T01:41:20.559Z,99984.41
2019-03-29T01:46:26.072Z,99986.50
2019-03-29T01:51:31.909Z,99978.09
2019-03-29T01:56:37.677Z,99976.45
2019-03-29T02:01:43.790Z,99978.77
2019-03-29T02:06:49.569Z,99973.97
2019-03-29T02:11:55.312Z,99965.59
2019-03-29T02:17:01.841Z,99966.74
2019-03-29T02:22:09.079Z,99960.49
2019-03-29T02:27:15.039Z,99957.66
2019-03-29T02:32:20.569Z,99953.88
2019-03-29T02:37:26.962Z,99958.98
2019-03-29T02:42:33.496Z,99952.38
2019-03-29T02:47:39.170Z,99957.48
2019-03-29T02:52:45.167Z,99957.16
2019-03-29T02:57:52.259Z,99952.85
2019-03-29T03:02:58.601Z,99941.48
2019-03-29T03:08:04.392Z,99939.81
2019-03-29T03:13:10.546Z,99935.20
2019-03-29T03:18:16.240Z,99938.47
2019-03-29T03:23:24.026Z,99934.03
2019-03-29T03:28:30.029Z,99941.77
2019-03-29T03:33:36.497Z,99940.77
2019-03-29T03:38:42.244Z,99940.92
2019-03-29T03:43:48.398Z,99934.33
2019-03-29T03:48:54.160Z,99930.70
2019-03-29T03:54:00.471Z,99931.61
2019-03-29T03:59:06.643Z,99928.70
2019-03-29T04:04:13.579Z,99930.30
2019-03-29T04:09:19.589Z,99927.84
2019-03-29T04:14:25.586Z,99917.91
2019-03-29T04:19:31.544Z,99915.92
2019-03-29T04:24:37.344Z,99907.33
2019-03-29T04:29:43.797Z,99908.14
2019-03-29T04:34:49.837Z,99909.44
2019-03-29T04:40:06.853Z,99902.52
2019-03-29T04:45:03.409Z,99902.01
2019-03-29T04:50:09.821Z,99897.10
2019-03-29T04:55:15.524Z,99899.88
2019-03-29T05:00:22.122Z,99896.73
2019-03-29T05:05:27.975Z,99903.03
2019-03-29T05:10:34.147Z,99900.88
2019-03-29T05:15:39.864Z,99901.06
2019-03-29T05:20:45.576Z,99907.68
2019-03-29T05:25:51.351Z,99910.31
2019-03-29T05:30:57.126Z,99912.61
2019-03-29T05:36:03.240Z,99916.69
2019-03-29T05:41:09.596Z,99916.50
2019-03-29T05:46:15.717Z,99916.36
2019-03-29T05:51:21.425Z,99921.34
2019-03-29T05:56:27.229Z,99924.81
2019-03-29T06:01:32.926Z,99929.77
2019-03-29T06:06:39.056Z,99932.93
2019-03-29T06:11:44.842Z,99936.76
2019-03-29T06:16:50.559Z,99934.13
2019-03-29T06:21:56.343Z,99935.52
2019-03-29T06:27:02.440Z,99934.55
2019-03-29T06:32:08.322Z,99933.73
2019-03-29T06:37:17.432Z,99929.79
2019-03-29T06:42:23.172Z,99932.48
2019-03-29T06:47:29.687Z,99933.83
2019-03-29T06:52:35.576Z,99929.76
2019-03-29T06:57:41.280Z,99936.88
2019-03-29T07:02:46.991Z,99939.36
2019-03-29T07:07:52.777Z,99934.77
2019-03-29T07:12:58.640Z,99932.96
2019-03-29T07:18:04.341Z,99928.36
2019-03-29T07:23:10.373Z,99922.91
2019-03-29T07:28:16.173Z,99914.49
2019-03-29T07:33:21.880Z,99914.49
2019-03-29T07:38:28.637Z,99914.63
2019-03-29T07:43:34.997Z,99919.91
2019-03-29T07:48:41.775Z,99918.25
2019-03-29T07:53:48.472Z,99925.83
2019-03-29T07:58:54.762Z,99918.88
2019-03-29T08:04:00.650Z,99920.39
2019-03-29T08:09:21.318Z,99914.90
2019-03-29T08:14:15.413Z,99914.34
2019-03-29T08:19:21.319Z,99929.19
2019-03-29T08:24:27.693Z,99915.52
2019-03-29T08:29:33.576Z,99919.31
2019-03-29T08:34:39.722Z,99917.22
2019-03-29T08:39:45.513Z,99920.78
2019-03-29T08:44:51.301Z,99915.23
2019-03-29T08:49:57.079Z,99915.13
2019-03-29T08:55:02.877Z,99914.23
2019-03-29T09:00:09.931Z,99917.84
2019-03-29T09:05:15.896Z,99909.29
2019-03-29T09:10:26.129Z,99904.02
2019-03-29T09:15:32.295Z,99913.33
2019-03-29T09:20:40.416Z,99900.75
2019-03-29T09:25:46.680Z,99897.25
2019-03-29T09:30:56.400Z,99901.39
2019-03-29T09:36:00.636Z,99895.41
2019-03-29T09:41:06.751Z,99894.39
2019-03-29T09:46:12.699Z,99892.42
2019-03-29T09:51:18.500Z,99890.95
2019-03-29T09:56:38.097Z,99879.56
2019-03-29T10:01:32.373Z,99876.77
2019-03-29T10:06:39.604Z,99880.12
2019-03-29T10:11:45.522Z,99887.59
2019-03-29T10:16:52.796Z,99878.51
2019-03-29T10:21:59.538Z,99881.26
2019-03-29T10:27:05.322Z,99881.22
2019-03-29T10:32:11.855Z,99878.95
2019-03-29T10:37:18.050Z,99872.70
2019-03-29T10:42:23.848Z,99869.46
2019-03-29T10:47:43.288Z,99861.72
2019-03-29T10:52:37.045Z,99854.63
2019-03-29T10:57:42.822Z,99847.94
2019-03-29T11:02:49.721Z,99846.36
2019-03-29T11:07:55.523Z,99841.54
2019-03-29T11:13:12.569Z,99834.61
2019-03-29T11:18:09.421Z,99827.20
2019-03-29T11:23:15.319Z,99831.00
2019-03-29T11:28:21.101Z,99822.64
2019-03-29T11:33:27.338Z,99819.03
2019-03-29T11:38:33.115Z,99809.34
2019-03-29T11:43:39.029Z,99802.47
2019-03-29T11:48:44.811Z,99801.83
2019-03-29T11:53:52.318Z,99788.33
2019-03-29T11:58:58.110Z,99781.28
2019-03-29T12:04:05.282Z,99779.28
2019-03-29T12:09:11.062Z,99768.67
2019-03-29T12:14:17.154Z,99774.38
2019-03-29T12:19:23.035Z,99770.39
2019-03-29T12:24:29.166Z,99764.22
2019-03-29T12:29:35.084Z,99758.88
2019-03-29T12:34:40.961Z,99756.78
2019-03-29T12:39:46.839Z,99740.81
2019-03-29T12:44:52.638Z,99733.30
2019-03-29T12:49:58.428Z,99732.84
2019-03-29T12:55:04.413Z,99721.55
2019-03-29T13:00:10.710Z,99715.77
2019-03-29T13:05:17.554Z,99707.22
2019-03-29T13:10:23.433Z,99690.27
2019-03-29T13:15:30.261Z,99690.61
2019-03-29T13:20:36.024Z,99685.63
2019-03-29T13:25:41.795Z,99681.93
2019-03-29T13:30:47.649Z,99664.16
2019-03-29T13:35:53.674Z,99650.69
2019-03-29T13:40:59.476Z,99636.83
2019-03-29T13:46:05.378Z,99626.34
2019-03-29T13:51:11.455Z,99621.67
2019-03-29T13:56:17.232Z,99611.38
2019-03-29T14:01:23.312Z,99601.98
2019-03-29T14:06:29.266Z,99600.86
2019-03-29T14:11:35.056Z,99584.63
2019-03-29T14:16:40.862Z,99579.70
2019-03-29T14:21:46.983Z,99578.30
2019-03-29T14:26:52.842Z,99572.97
2019-03-29T14:31:58.612Z,99561.23
2019-03-29T14:37:04.408Z,99564.39
2019-03-29T14:42:12.780Z,99559.97
2019-03-29T14:47:18.861Z,99543.58
2019-03-29T14:52:24.634Z,99540.13
2019-03-29T14:57:30.417Z,99532.48
2019-03-29T15:02:36.184Z,99521.42
2019-03-29T15:07:43.197Z,99517.92
2019-03-29T15:12:50.058Z,99510.91
2019-03-29T15:17:56.232Z,99508.64
2019-03-29T15:23:02.036Z,99497.02
2019-03-29T15:28:07.933Z,99489.56
2019-03-29T15:33:13.814Z,99482.78
2019-03-29T15:38:19.664Z,99480.14
2019-03-29T15:43:25.444Z,99475.37
2019-03-29T15:48:31.301Z,99482.95
2019-03-29T15:53:37.395Z,99479.42
2019-03-29T15:58:43.267Z,99471.36
2019-03-29T16:03:49.142Z,99473.03
2019-03-29T16:08:55.021Z,99466.52
2019-03-29T16:14:00.874Z,99458.27
2019-03-29T16:19:06.906Z,99460.68
2019-03-29T16:24:12.783Z,99464.62
2019-03-29T16:29:19.658Z,99451.69
2019-03-29T16:34:25.456Z,99445.16
2019-03-29T16:39:31.250Z,99450.22
2019-03-29T16:44:37.022Z,99440.72
2019-03-29T16:49:42.929Z,99442.23
2019-03-29T16:54:48.697Z,99440.42
2019-03-29T16:59:57.083Z,99436.31
2019-03-29T17:05:03.228Z,99432.88
2019-03-29T17:10:09.405Z,99425.35
2019-03-29T17:15:15.935Z,99421.02
2019-03-29T17:20:22.027Z,99413.86
2019-03-29T17:25:28.505Z,99403.07
2019-03-29T17:30:40.822Z,99405.14
2019-03-29T17:35:46.664Z,99396.07
2019-03-29T17:40:52.440Z,99395.38
2019-03-29T17:45:59.485Z,99399.17
2019-03-29T17:51:05.626Z,99395.08
2019-03-29T17:56:11.788Z,99398.61
2019-03-29T18:01:18.277Z,99396.63
2019-03-29T18:06:24.416Z,99395.64
2019-03-29T18:11:30.196Z,99397.84
2019-03-29T18:16:36.321Z,99400.20
2019-03-29T18:21:42.092Z,99396.58
2019-03-29T18:26:47.978Z,99392.98
2019-03-29T18:31:54.353Z,99394.58
2019-03-29T18:37:02.810Z,99392.95
2019-03-29T18:42:08.629Z,99384.05
2019-03-29T18:47:14.528Z,99387.75
2019-03-29T18:52:21.452Z,99390.24
2019-03-29T18:57:27.290Z,99382.89
2019-03-29T19:02:33.074Z,99377.48
2019-03-29T19:07:39.302Z,99377.69
2019-03-29T19:12:45.231Z,99375.96
2019-03-29T19:17:51.078Z,99378.95
2019-03-29T19:22:57.456Z,99381.68
2019-03-29T19:28:03.705Z,99378.01
2019-03-29T19:33:10.907Z,99374.45
2019-03-29T19:38:16.738Z,99390.78
2019-03-29T19:43:22.541Z,99379.31
2019-03-29T19:48:28.720Z,99377.74
2019-03-29T19:53:35.611Z,99377.64
2019-03-29T19:58:41.788Z,99372.56
2019-03-29T20:03:48.063Z,99369.62
2019-03-29T20:08:54.625Z,99373.27
2019-03-29T20:14:00.760Z,99373.63
2019-03-29T20:19:06.506Z,99371.50
2019-03-29T20:24:12.307Z,99378.44
2019-03-29T20:29:18.032Z,99374.83
2019-03-29T20:34:24.059Z,99369.55
2019-03-29T20:39:29.877Z,99371.55
2019-03-29T20:44:35.708Z,99371.39
2019-03-29T20:49:43.026Z,99366.61
2019-03-29T20:54:48.741Z,99357.22
2019-03-29T20:59:54.591Z,99362.81
2019-03-29T21:05:00.907Z,99363.66
2019-03-29T21:10:08.151Z,99363.33
2019-03-29T21:15:14.399Z,99362.50
2019-03-29T21:20:20.311Z,99358.24
2019-03-29T21:25:26.832Z,99368.89
2019-03-29T21:30:32.602Z,99353.28
2019-03-29T21:35:38.370Z,99348.21
2019-03-29T21:40:44.649Z,99348.33
2019-03-29T21:45:50.600Z,99351.47
2019-03-29T21:50:56.457Z,99341.62
2019-03-29T21:56:03.486Z,99340.70
2019-03-29T22:01:10.352Z,99343.86
2019-03-29T22:06:17.535Z,99342.34
2019-03-29T22:11:23.495Z,99336.38
2019-03-29T22:16:29.719Z,99337.04
2019-03-29T22:21:35.902Z,99336.54
2019-03-29T22:26:41.610Z,99323.41
2019-03-29T22:31:48.178Z,99318.95
2019-03-29T22:36:54.155Z,99316.20
2019-03-29T22:42:00.963Z,99316.36
2019-03-29T22:47:06.850Z,99312.41
2019-03-29T22:52:12.670Z,99300.56
2019-03-29T22:57:18.562Z,99289.38
2019-03-29T23:02:25.357Z,99289.38
2019-03-29T23:07:31.048Z,99284.77
2019-03-29T23:12:36.871Z,99274.89
2019-03-29T23:17:42.810Z,99280.33
2019-03-29T23:22:48.798Z,99277.86
2019-03-29T23:27:55.936Z,99275.53
2019-03-29T23:33:02.350Z,99275.71
2019-03-29T23:38:08.055Z,99271.93
2019-03-29T23:43:14.934Z,99269.95
2019-03-29T23:48:20.625Z,99263.84
2019-03-29T23:53:26.334Z,99261.37
2019-03-29T23:58:32.399Z,99262.52
